Time;durP1;ratioP1;P1;durP2;ratioP2;P2;SDS_P1;SDS_P2;PMS_P1;PMS_P2;Temp;Humidity;BMP_temperature;BMP_pressure;BME280_temperature;BME280_humidity;BME280_pressure;Samples;Min_cycle;Max_cycle;Signal;HPM_P1;HPM_P2
2022/09/16 00:00:08;;;;;;;1.47;1.47;;;23.80;64.80;;;;;;4999216;28;43477;-72
2022/09/16 00:02:36;;;;;;;1.50;1.50;;;23.70;65.10;;;;;;4979497;28;45287;-75
2022/09/16 00:05:07;;;;;;;1.50;1.50;;;23.60;65.30;;;;;;4991196;28;43520;-77
2022/09/16 00:07:35;;;;;;;1.53;1.53;;;23.60;65.30;;;;;;4994528;28;43453;-76
2022/09/16 00:10:03;;;;;;;1.40;1.40;;;23.50;65.30;;;;;;4997757;28;43385;-76
2022/09/16 00:12:31;;;;;;;1.40;1.40;;;23.50;65.60;;;;;;4992790;28;43808;-75
2022/09/16 00:14:59;;;;;;;1.63;1.63;;;23.40;65.80;;;;;;4991465;28;43517;-75
2022/09/16 00:17:29;;;;;;;1.50;1.50;;;23.40;65.80;;;;;;5003954;28;43599;-73
2022/09/16 00:19:57;;;;;;;1.53;1.53;;;23.40;65.70;;;;;;4996287;28;43492;-77
2022/09/16 00:22:26;;;;;;;1.43;1.43;;;23.40;65.80;;;;;;4989837;28;44501;-76
2022/09/16 00:24:54;;;;;;;3.23;1.70;;;23.40;65.90;;;;;;4997447;28;43501;-75
2022/09/16 00:27:22;;;;;;;2.70;1.60;;;23.40;66.10;;;;;;4992245;28;43474;-75
2022/09/16 00:29:50;;;;;;;2.90;1.80;;;23.40;66.10;;;;;;4987695;28;43817;-76
2022/09/16 00:32:18;;;;;;;1.40;1.40;;;23.40;65.90;;;;;;4991663;28;43940;-75
2022/09/16 00:34:47;;;;;;;1.73;1.63;;;23.40;66.00;;;;;;4997520;28;43599;-76
2022/09/16 00:37:15;;;;;;;1.40;1.40;;;23.30;66.00;;;;;;4994409;28;43383;-75
2022/09/16 00:39:43;;;;;;;1.60;1.60;;;23.30;66.30;;;;;;4989063;28;43494;-76
2022/09/16 00:42:11;;;;;;;2.63;1.73;;;23.40;66.00;;;;;;4993075;28;43676;-76
2022/09/16 00:44:57;;;;;;;1.53;1.53;;;23.50;65.70;;;;;;4988601;28;43444;-74
2022/09/16 00:47:29;;;;;;;1.60;1.60;;;23.60;65.10;;;;;;4990578;28;43429;-75
2022/09/16 00:50:00;;;;;;;1.40;1.40;;;23.80;64.80;;;;;;4990823;28;43546;-76
2022/09/16 00:52:28;;;;;;;1.50;1.50;;;23.80;64.70;;;;;;4975924;28;46090;-75
2022/09/16 00:54:56;;;;;;;1.50;1.50;;;23.80;64.80;;;;;;4972781;28;45053;-74
2022/09/16 00:57:23;;;;;;;2.43;1.60;;;23.70;65.00;;;;;;4997313;28;43463;-74
2022/09/16 00:59:55;;;;;;;1.70;1.63;;;23.60;65.20;;;;;;4985188;28;43462;-76
2022/09/16 01:02:23;;;;;;;1.50;1.50;;;23.60;65.30;;;;;;4999483;28;45159;-72
2022/09/16 01:04:54;;;;;;;1.77;1.77;;;23.50;65.30;;;;;;5000935;28;43456;-72
2022/09/16 01:07:27;;;;;;;1.50;1.50;;;23.50;65.50;;;;;;5002253;28;43408;-72
2022/09/16 01:09:55;;;;;;;1.50;1.50;;;23.40;65.60;;;;;;4997629;28;43811;-71
2022/09/16 01:12:23;;;;;;;1.60;1.60;;;23.40;65.90;;;;;;4995873;28;43862;-72
2022/09/16 01:14:54;;;;;;;1.50;1.50;;;23.40;65.70;;;;;;4979227;28;44297;-72
2022/09/16 01:17:30;;;;;;;1.50;1.50;;;23.40;65.70;;;;;;4978790;28;43516;-70
2022/09/16 01:20:16;;;;;;;1.50;1.50;;;23.40;65.90;;;;;;4979622;28;43576;-73
2022/09/16 01:22:55;;;;;;;1.60;1.60;;;23.30;66.00;;;;;;5001362;28;43852;-72
2022/09/16 01:25:29;;;;;;;1.40;1.40;;;23.40;66.10;;;;;;4995386;28;43457;-70
2022/09/16 01:28:26;;;;;;;1.33;1.33;;;23.40;65.70;;;;;;5001655;28;43412;-71
2022/09/16 01:31:00;;;;;;;1.77;1.77;;;23.60;65.20;;;;;;4970726;28;43472;-72
2022/09/16 01:33:34;;;;;;;1.40;1.40;;;23.70;64.80;;;;;;5005906;28;43609;-72
2022/09/16 01:36:15;;;;;;;1.40;1.40;;;23.70;64.70;;;;;;4978443;28;43418;-71
2022/09/16 01:38:53;;;;;;;1.50;1.50;;;23.70;64.70;;;;;;4999502;28;43616;-71
2022/09/16 01:41:26;;;;;;;1.60;1.60;;;23.60;65.00;;;;;;5003809;28;43388;-71
2022/09/16 01:43:58;;;;;;;1.97;1.87;;;23.50;65.20;;;;;;4996500;28;43901;-72
2022/09/16 01:46:31;;;;;;;1.50;1.50;;;23.50;66.10;;;;;;4996926;28;43404;-71
2022/09/16 01:49:00;;;;;;;1.40;1.40;;;23.50;65.40;;;;;;5000133;28;43417;-71
2022/09/16 01:51:30;;;;;;;1.70;1.70;;;23.40;65.50;;;;;;4996836;28;43452;-70
2022/09/16 01:54:03;;;;;;;1.57;1.57;;;23.40;65.80;;;;;;4992997;28;43862;-71
2022/09/16 01:56:33;;;;;;;1.57;1.57;;;23.40;65.80;;;;;;4993306;28;43532;-72
2022/09/16 01:59:02;;;;;;;1.40;1.40;;;23.40;65.80;;;;;;5001660;28;43340;-72
2022/09/16 02:01:33;;;;;;;1.43;1.43;;;23.30;65.80;;;;;;5007129;28;43432;-73
2022/09/16 02:04:04;;;;;;;2.40;1.70;;;23.30;65.80;;;;;;5003550;28;43662;-71
2022/09/16 02:06:32;;;;;;;2.00;1.50;;;23.30;66.00;;;;;;4986506;28;43370;-72
2022/09/16 02:09:02;;;;;;;1.67;1.67;;;23.30;66.00;;;;;;5011379;28;43529;-71
2022/09/16 02:11:29;;;;;;;1.40;1.40;;;23.30;65.90;;;;;;5007461;28;43423;-73
2022/09/16 02:13:59;;;;;;;1.40;1.40;;;23.30;65.90;;;;;;4976133;28;46066;-72
2022/09/16 02:16:29;;;;;;;1.47;1.47;;;23.30;66.00;;;;;;5000754;28;43468;-72
2022/09/16 02:19:01;;;;;;;1.60;1.50;;;23.30;66.30;;;;;;4999422;28;43491;-71
2022/09/16 02:21:30;;;;;;;1.50;1.50;;;23.30;66.00;;;;;;5000882;28;43468;-71
2022/09/16 02:23:59;;;;;;;1.30;1.30;;;23.40;65.60;;;;;;5003917;28;43738;-72
2022/09/16 02:26:29;;;;;;;1.50;1.50;;;23.50;65.20;;;;;;4991517;28;43381;-72
2022/09/16 02:28:57;;;;;;;1.40;1.40;;;23.60;64.90;;;;;;4994577;28;43429;-71
2022/09/16 02:31:27;;;;;;;1.60;1.60;;;23.70;64.80;;;;;;4971725;28;43909;-73
2022/09/16 02:33:59;;;;;;;1.50;1.50;;;23.60;64.80;;;;;;4996390;28;43576;-71
2022/09/16 02:36:27;;;;;;;1.50;1.50;;;23.60;65.00;;;;;;4988532;28;43966;-70
2022/09/16 02:38:56;;;;;;;1.60;1.60;;;23.50;65.30;;;;;;4984711;28;43427;-71
2022/09/16 02:41:24;;;;;;;1.53;1.53;;;23.50;65.40;;;;;;5001258;28;43332;-72
2022/09/16 02:43:52;;;;;;;1.43;1.43;;;23.40;65.40;;;;;;4983432;28;45678;-72
2022/09/16 02:46:24;;;;;;;1.60;1.60;;;23.40;65.60;;;;;;5004520;28;43441;-73
2022/09/16 02:48:57;;;;;;;1.20;1.20;;;23.30;65.70;;;;;;5003528;28;43967;-70
2022/09/16 02:51:31;;;;;;;1.40;1.40;;;23.40;65.80;;;;;;5000133;28;43421;-73
2022/09/16 02:54:01;;;;;;;1.50;1.50;;;23.40;65.40;;;;;;5000679;28;43893;-72
2022/09/16 02:56:30;;;;;;;1.60;1.60;;;23.60;65.20;;;;;;4999160;28;43401;-72
2022/09/16 02:58:58;;;;;;;1.50;1.50;;;23.60;64.70;;;;;;5003398;28;44100;-72
2022/09/16 03:01:26;;;;;;;1.63;1.57;;;23.60;64.60;;;;;;4993574;28;43461;-71
2022/09/16 03:03:55;;;;;;;1.70;1.70;;;23.60;64.80;;;;;;4984304;28;45573;-71
2022/09/16 03:06:24;;;;;;;1.50;1.50;;;23.60;65.00;;;;;;5004748;28;43408;-71
2022/09/16 03:08:53;;;;;;;1.50;1.50;;;23.50;65.20;;;;;;5004817;28;43436;-72
2022/09/16 03:12:00;;;;;;;1.60;1.60;;;23.40;65.30;;;;;;4993891;28;43543;-72
2022/09/16 03:14:59;;;;;;;1.50;1.50;;;23.40;65.30;;;;;;4997945;28;43698;-72
2022/09/16 03:17:35;;;;;;;1.57;1.57;;;23.30;65.50;;;;;;4974846;28;43375;-70
2022/09/16 03:20:05;;;;;;;1.37;1.37;;;23.30;65.70;;;;;;5004080;28;43444;-73
2022/09/16 03:22:44;;;;;;;1.50;1.50;;;23.30;65.80;;;;;;4998602;28;43768;-72
2022/09/16 03:25:18;;;;;;;1.50;1.50;;;23.40;65.70;;;;;;5002624;28;43620;-70
2022/09/16 03:27:47;;;;;;;1.50;1.50;;;23.40;65.30;;;;;;4993098;28;43511;-71
2022/09/16 03:30:15;;;;;;;1.53;1.53;;;23.40;65.10;;;;;;5008149;28;43484;-71
2022/09/16 03:32:44;;;;;;;1.40;1.40;;;23.40;65.30;;;;;;4997270;28;43831;-72
2022/09/16 03:35:13;;;;;;;1.40;1.40;;;23.40;65.50;;;;;;4999530;28;43617;-72
2022/09/16 03:37:42;;;;;;;2.80;1.87;;;23.40;65.40;;;;;;5002582;28;43751;-71
2022/09/16 03:40:11;;;;;;;2.70;1.80;;;23.40;65.40;;;;;;4988766;28;43634;-72
2022/09/16 03:42:39;;;;;;;7.00;3.03;;;23.40;65.60;;;;;;4981760;28;43513;-74
2022/09/16 03:45:09;;;;;;;6.87;3.53;;;23.30;65.60;;;;;;5002802;28;43650;-72
2022/09/16 03:47:37;;;;;;;9.80;4.63;;;23.30;65.70;;;;;;5001037;28;43485;-71
2022/09/16 03:50:06;;;;;;;14.20;5.33;;;23.30;65.50;;;;;;4997410;28;43420;-74
2022/09/16 03:52:34;;;;;;;16.10;5.53;;;23.40;65.30;;;;;;4996478;28;43376;-71
2022/09/16 03:55:03;;;;;;;12.63;5.63;;;23.50;65.10;;;;;;5002000;28;43608;-72
2022/09/16 03:57:31;;;;;;;11.53;5.70;;;23.40;65.10;;;;;;4997132;28;43456;-73
2022/09/16 04:00:00;;;;;;;17.03;6.73;;;23.40;65.20;;;;;;4997098;28;43376;-70
2022/09/16 04:02:27;;;;;;;14.70;6.13;;;23.40;65.40;;;;;;5005091;28;43398;-72
2022/09/16 04:04:55;;;;;;;18.17;6.73;;;23.40;65.40;;;;;;4996823;28;43783;-71
2022/09/16 04:07:23;;;;;;;24.00;7.03;;;23.40;65.50;;;;;;4996231;28;43552;-71
2022/09/16 04:09:51;;;;;;;21.03;7.27;;;23.30;65.60;;;;;;4992042;28;43376;-71
2022/09/16 04:12:20;;;;;;;21.77;7.97;;;23.30;65.50;;;;;;4996048;28;43476;-72
2022/09/16 04:14:49;;;;;;;20.17;7.07;;;23.30;65.50;;;;;;4994578;28;43786;-71
2022/09/16 04:17:17;;;;;;;21.13;7.17;;;23.30;65.60;;;;;;4995807;28;44150;-72
2022/09/16 04:19:45;;;;;;;20.93;7.53;;;23.30;65.70;;;;;;4999185;28;44312;-72
2022/09/16 04:22:13;;;;;;;23.63;8.27;;;23.30;65.90;;;;;;4992696;28;43848;-71
2022/09/16 04:24:41;;;;;;;20.43;8.13;;;23.30;65.80;;;;;;5001943;28;43961;-72
2022/09/16 04:27:09;;;;;;;22.20;8.13;;;23.40;65.40;;;;;;4998625;28;45083;-71
2022/09/16 04:29:38;;;;;;;22.50;8.73;;;23.50;64.90;;;;;;4997151;28;43429;-72
2022/09/16 04:32:06;;;;;;;19.73;8.67;;;23.60;64.70;;;;;;5002334;28;43828;-73
2022/09/16 04:34:34;;;;;;;25.40;9.20;;;23.60;64.70;;;;;;5000726;28;43577;-72
2022/09/16 04:37:02;;;;;;;24.60;8.90;;;23.50;64.80;;;;;;4986016;28;44277;-71
2022/09/16 04:39:30;;;;;;;21.73;8.70;;;23.50;65.10;;;;;;5003833;28;43448;-71
2022/09/16 04:41:58;;;;;;;27.90;8.70;;;23.40;65.20;;;;;;5000533;28;43413;-71
2022/09/16 04:44:26;;;;;;;20.60;8.50;;;23.40;65.30;;;;;;4985408;28;45349;-71
2022/09/16 04:46:55;;;;;;;21.07;8.17;;;23.40;65.40;;;;;;4992006;28;43361;-72
2022/09/16 04:49:24;;;;;;;20.67;8.23;;;23.30;65.40;;;;;;5006173;28;43445;-72
2022/09/16 04:51:51;;;;;;;22.83;8.33;;;23.30;65.60;;;;;;4990558;28;43434;-72
2022/09/16 04:54:19;;;;;;;19.70;8.77;;;23.30;65.30;;;;;;4983762;28;46287;-72
2022/09/16 04:56:47;;;;;;;15.83;7.50;;;23.30;65.40;;;;;;4977643;28;45101;-70
2022/09/16 04:59:15;;;;;;;16.07;7.57;;;23.30;65.50;;;;;;4980190;28;43438;-71
2022/09/16 05:01:44;;;;;;;18.43;7.57;;;23.20;65.50;;;;;;4990773;28;43330;-71
2022/09/16 05:04:13;;;;;;;16.73;7.53;;;23.20;65.60;;;;;;4995657;28;44008;-71
2022/09/16 05:06:41;;;;;;;18.57;7.47;;;23.20;65.70;;;;;;5008486;28;43830;-71
2022/09/16 05:09:10;;;;;;;18.57;7.60;;;23.30;65.60;;;;;;4996504;28;43400;-71
2022/09/16 05:11:38;;;;;;;17.60;7.20;;;23.40;65.30;;;;;;5001871;28;43423;-71
2022/09/16 05:14:10;;;;;;;14.67;7.13;;;23.50;64.90;;;;;;4978598;28;45284;-73
2022/09/16 05:16:38;;;;;;;16.23;7.40;;;23.60;64.60;;;;;;5007953;28;43452;-73
2022/09/16 05:19:05;;;;;;;19.27;8.67;;;23.60;64.40;;;;;;5016058;28;43340;-73
2022/09/16 05:21:36;;;;;;;18.40;7.27;;;23.60;64.50;;;;;;4996699;28;43471;-75
2022/09/16 05:24:06;;;;;;;12.40;6.57;;;23.50;64.80;;;;;;4995039;28;43612;-70
2022/09/16 05:26:35;;;;;;;15.73;7.03;;;23.40;64.90;;;;;;5000587;28;43449;-72
2022/09/16 05:29:04;;;;;;;13.43;7.20;;;23.40;65.00;;;;;;4985140;28;43355;-71
2022/09/16 05:31:33;;;;;;;14.63;6.83;;;23.40;65.10;;;;;;5008162;28;43643;-73
2022/09/16 05:34:01;;;;;;;15.93;7.10;;;23.30;65.20;;;;;;4999091;28;43996;-72
2022/09/16 05:36:31;;;;;;;17.57;7.20;;;23.30;65.40;;;;;;4990306;28;43357;-70
2022/09/16 05:39:00;;;;;;;13.97;6.20;;;23.30;65.40;;;;;;4983348;28;43449;-71
2022/09/16 05:41:49;;;;;;;11.00;6.17;;;23.30;65.40;;;;;;4990262;28;43481;-71
2022/09/16 05:44:16;;;;;;;11.20;6.20;;;23.30;65.50;;;;;;5004872;28;45835;-70
2022/09/16 05:46:44;;;;;;;13.20;6.17;;;23.20;65.50;;;;;;4995919;28;43396;-72
2022/09/16 05:49:12;;;;;;;13.83;6.47;;;23.20;65.70;;;;;;4983282;28;43517;-71
2022/09/16 05:51:41;;;;;;;15.87;6.90;;;23.20;65.70;;;;;;4998318;28;43361;-73
2022/09/16 05:54:10;;;;;;;10.37;5.87;;;23.30;65.50;;;;;;4993590;28;43823;-70
2022/09/16 05:56:38;;;;;;;11.43;5.83;;;23.40;65.10;;;;;;4997784;28;43394;-71
2022/09/16 05:59:06;;;;;;;10.33;5.53;;;23.50;64.70;;;;;;5002984;28;43444;-74
2022/09/16 06:01:35;;;;;;;12.80;5.90;;;23.60;64.60;;;;;;5002401;28;43349;-72
2022/09/16 06:04:04;;;;;;;12.07;5.80;;;23.50;64.50;;;;;;4997075;28;43612;-72
2022/09/16 06:06:33;;;;;;;9.97;5.80;;;23.50;64.70;;;;;;4993861;28;44124;-73
2022/09/16 06:09:04;;;;;;;11.30;5.97;;;23.40;64.90;;;;;;4985304;28;43456;-71
2022/09/16 06:11:36;;;;;;;9.17;5.50;;;23.40;65.10;;;;;;5001287;28;43937;-70
2022/09/16 06:14:04;;;;;;;10.17;5.40;;;23.30;65.10;;;;;;4996925;28;43871;-72
2022/09/16 06:16:32;;;;;;;10.80;5.97;;;23.30;65.30;;;;;;5000617;28;43906;-73
2022/09/16 06:19:01;;;;;;;8.93;5.20;;;23.30;65.40;;;;;;4977616;28;43506;-72
2022/09/16 06:21:29;;;;;;;10.23;5.07;;;23.20;65.50;;;;;;5011268;28;43417;-71
2022/09/16 06:23:57;;;;;;;7.60;5.27;;;23.20;65.40;;;;;;5004004;28;43849;-70
2022/09/16 06:26:26;;;;;;;10.07;5.47;;;23.20;65.40;;;;;;5010829;28;44068;-70
2022/09/16 06:28:55;;;;;;;7.73;5.10;;;23.20;65.60;;;;;;5008039;28;43412;-72
2022/09/16 06:31:24;;;;;;;7.77;4.97;;;23.20;65.80;;;;;;5011152;28;43408;-70
2022/09/16 06:33:52;;;;;;;9.53;5.13;;;23.20;65.80;;;;;;5003492;28;43616;-71
2022/09/16 06:36:21;;;;;;;9.20;5.37;;;23.20;65.50;;;;;;5002780;28;43402;-72
2022/09/16 06:38:50;;;;;;;7.47;4.90;;;23.30;65.20;;;;;;4997755;28;43888;-70
2022/09/16 06:41:18;;;;;;;7.30;4.87;;;23.40;64.80;;;;;;4992775;28;43611;-72
2022/09/16 06:43:46;;;;;;;7.67;4.83;;;23.50;64.50;;;;;;4997620;28;44029;-71
2022/09/16 06:46:17;;;;;;;9.00;5.20;;;23.50;64.40;;;;;;4998649;28;43843;-72
2022/09/16 06:48:46;;;;;;;7.30;4.63;;;23.50;64.60;;;;;;4994280;28;43783;-73
2022/09/16 06:51:15;;;;;;;7.40;4.57;;;23.40;64.80;;;;;;5001430;28;43668;-72
2022/09/16 06:53:43;;;;;;;7.13;4.57;;;23.30;65.00;;;;;;5001860;28;43600;-73
2022/09/16 06:56:12;;;;;;;7.17;4.83;;;23.30;65.20;;;;;;5000740;28;43710;-71
2022/09/16 06:58:41;;;;;;;6.83;4.40;;;23.20;65.10;;;;;;4992152;28;43405;-70
2022/09/16 07:01:09;;;;;;;4.70;4.20;;;23.20;65.20;;;;;;5002120;28;43367;-72
2022/09/16 07:03:39;;;;;;;6.27;4.80;;;23.20;65.40;;;;;;4998022;28;43981;-72
2022/09/16 07:06:08;;;;;;;5.07;4.00;;;23.20;65.40;;;;;;5005659;28;43484;-71
2022/09/16 07:08:36;;;;;;;5.80;4.10;;;23.20;65.40;;;;;;4985014;28;43829;-76
2022/09/16 07:11:06;;;;;;;4.83;4.03;;;23.20;65.50;;;;;;5002661;28;43460;-71
2022/09/16 07:13:34;;;;;;;6.43;4.40;;;23.10;65.50;;;;;;4976758;28;45572;-75
2022/09/16 07:16:02;;;;;;;5.27;4.30;;;23.10;65.70;;;;;;4997430;28;43448;-70
2022/09/16 07:18:42;;;;;;;4.10;3.73;;;23.10;65.50;;;;;;5002639;28;43409;-71
2022/09/16 07:21:11;;;;;;;4.90;3.90;;;23.20;65.20;;;;;;5007215;28;43415;-70
2022/09/16 07:23:39;;;;;;;6.03;4.30;;;23.30;64.90;;;;;;4998309;28;43851;-72
2022/09/16 07:26:08;;;;;;;6.40;4.20;;;23.50;64.50;;;;;;5008152;28;43467;-72
2022/09/16 07:28:38;;;;;;;6.20;3.60;;;23.50;64.30;;;;;;4999275;28;43305;-70
2022/09/16 07:31:08;;;;;;;4.17;3.87;;;23.40;64.40;;;;;;5006653;28;43455;-72
2022/09/16 07:33:36;;;;;;;4.97;4.10;;;23.40;64.70;;;;;;4996456;28;43717;-73
2022/09/16 07:36:06;;;;;;;4.87;3.80;;;23.30;64.90;;;;;;4999186;28;43441;-72
2022/09/16 07:38:34;;;;;;;4.27;3.87;;;23.30;65.00;;;;;;4992358;28;43386;-72
2022/09/16 07:41:04;;;;;;;4.27;3.80;;;23.30;65.00;;;;;;5014261;28;43423;-71
2022/09/16 07:43:32;;;;;;;3.90;3.60;;;23.20;65.10;;;;;;5000624;28;43611;-73
2022/09/16 07:46:00;;;;;;;5.37;3.53;;;23.20;65.30;;;;;;5002404;28;43430;-71
2022/09/16 07:48:29;;;;;;;4.87;3.40;;;23.10;65.40;;;;;;4985031;28;43442;-72
2022/09/16 07:51:03;;;;;;;4.17;3.77;;;23.20;65.20;;;;;;4996483;28;43891;-72
2022/09/16 07:53:32;;;;;;;3.80;3.40;;;23.30;65.00;;;;;;4978842;28;45625;-70
2022/09/16 07:56:03;;;;;;;4.03;3.63;;;23.30;64.70;;;;;;4978115;28;44477;-72
2022/09/16 07:58:31;;;;;;;4.03;3.73;;;23.30;64.90;;;;;;5000655;28;43376;-74
2022/09/16 08:00:59;;;;;;;3.53;3.23;;;23.20;64.80;;;;;;5003951;28;43372;-71
2022/09/16 08:03:31;;;;;;;3.77;3.47;;;23.20;64.90;;;;;;4993182;28;45428;-73
2022/09/16 08:06:00;;;;;;;3.67;3.37;;;23.20;64.80;;;;;;4991810;28;43369;-70
2022/09/16 08:08:28;;;;;;;3.53;3.23;;;23.20;64.90;;;;;;4990995;28;43432;-71
2022/09/16 08:10:57;;;;;;;3.67;3.37;;;23.20;65.20;;;;;;5004104;28;43413;-71
2022/09/16 08:13:25;;;;;;;3.47;3.17;;;23.10;65.30;;;;;;4985114;28;45392;-73
2022/09/16 08:15:53;;;;;;;3.40;3.10;;;23.10;65.20;;;;;;4983088;28;44684;-69
2022/09/16 08:18:21;;;;;;;3.60;3.30;;;23.20;65.00;;;;;;4984047;28;44055;-71
2022/09/16 08:20:49;;;;;;;4.30;3.47;;;23.30;64.60;;;;;;4998964;28;43392;-71
2022/09/16 08:23:17;;;;;;;4.00;2.97;;;23.40;64.30;;;;;;4983001;28;45371;-71
2022/09/16 08:25:46;;;;;;;3.40;3.10;;;23.40;64.20;;;;;;4993401;28;43537;-72
2022/09/16 08:28:15;;;;;;;2.93;2.73;;;23.40;64.50;;;;;;5008604;28;43380;-71
2022/09/16 08:30:43;;;;;;;3.10;3.00;;;23.30;64.60;;;;;;5002381;28;43416;-71
2022/09/16 08:33:11;;;;;;;3.10;2.80;;;23.20;64.80;;;;;;4983524;28;44119;-70
2022/09/16 08:35:39;;;;;;;3.50;3.20;;;23.20;64.90;;;;;;5001259;28;43436;-73
2022/09/16 08:38:07;;;;;;;3.20;3.00;;;23.20;64.90;;;;;;4973271;28;43851;-70
2022/09/16 08:40:36;;;;;;;3.03;2.77;;;23.10;65.10;;;;;;5009869;28;43448;-72
2022/09/16 08:43:07;;;;;;;3.30;3.00;;;23.10;65.20;;;;;;5002646;28;45234;-71
2022/09/16 08:45:42;;;;;;;3.23;3.03;;;23.10;65.20;;;;;;5008545;28;43441;-74
2022/09/16 08:48:28;;;;;;;3.43;3.13;;;23.10;65.20;;;;;;4986578;28;43399;-72
2022/09/16 08:50:56;;;;;;;2.70;2.50;;;23.10;65.20;;;;;;4991320;28;43418;-71
2022/09/16 08:53:38;;;;;;;2.80;2.70;;;23.10;65.40;;;;;;4998309;28;43676;-72
2022/09/16 08:56:07;;;;;;;3.00;2.80;;;23.00;65.40;;;;;;4993031;28;44358;-74
2022/09/16 08:58:38;;;;;;;2.77;2.60;;;23.00;65.30;;;;;;4990269;28;43417;-72
2022/09/16 09:01:14;;;;;;;2.87;2.67;;;23.10;65.10;;;;;;5002425;28;43961;-73
2022/09/16 09:03:43;;;;;;;3.10;2.90;;;23.20;64.70;;;;;;4977483;28;45969;-71
2022/09/16 09:06:20;;;;;;;3.37;3.03;;;23.40;64.50;;;;;;4997757;28;43317;-71
2022/09/16 09:08:50;;;;;;;3.37;3.00;;;23.40;64.30;;;;;;4997328;28;43549;-71
2022/09/16 09:11:22;;;;;;;2.73;2.53;;;23.40;64.40;;;;;;4997981;28;43418;-71
2022/09/16 09:14:06;;;;;;;2.63;2.50;;;23.30;64.50;;;;;;5005399;28;43580;-71
2022/09/16 09:16:40;;;;;;;2.40;2.30;;;23.20;64.70;;;;;;4996534;28;43416;-71
2022/09/16 09:19:15;;;;;;;2.70;2.50;;;23.20;64.80;;;;;;4986675;28;43369;-71
2022/09/16 09:21:47;;;;;;;2.43;2.30;;;23.20;64.80;;;;;;4992021;28;43494;-72
2022/09/16 09:24:33;;;;;;;2.33;2.23;;;23.10;64.90;;;;;;4974947;28;45586;-70
2022/09/16 09:27:04;;;;;;;2.77;2.57;;;23.10;65.10;;;;;;5002277;28;43989;-71
2022/09/16 09:29:51;;;;;;;2.63;2.43;;;23.10;65.20;;;;;;4984790;28;43397;-71
2022/09/16 09:32:24;;;;;;;2.10;2.00;;;23.10;65.10;;;;;;4974832;28;43905;-71
2022/09/16 09:35:03;;;;;;;2.30;2.20;;;23.10;65.10;;;;;;4999062;28;43602;-71
2022/09/16 09:37:51;;;;;;;2.27;2.13;;;23.10;65.30;;;;;;5005093;28;43335;-71
2022/09/16 09:40:21;;;;;;;2.40;2.20;;;23.00;65.30;;;;;;4994269;28;43425;-71
2022/09/16 09:42:53;;;;;;;2.50;2.40;;;23.10;65.40;;;;;;4996519;28;43413;-70
2022/09/16 09:45:23;;;;;;;2.73;2.50;;;23.10;65.10;;;;;;4998032;28;44007;-71
2022/09/16 09:47:54;;;;;;;2.40;2.20;;;23.20;64.80;;;;;;4999203;28;43277;-71
2022/09/16 09:50:25;;;;;;;2.33;2.23;;;23.30;64.30;;;;;;4996153;28;43329;-72
2022/09/16 09:52:57;;;;;;;2.23;2.13;;;23.40;64.10;;;;;;4977831;28;43768;-73
2022/09/16 09:55:25;;;;;;;2.30;2.10;;;23.40;64.20;;;;;;4976593;28;45839;-73
2022/09/16 09:58:01;;;;;;;2.17;2.07;;;23.30;64.40;;;;;;5005087;28;43398;-70
2022/09/16 10:00:29;;;;;;;2.50;2.40;;;23.20;64.50;;;;;;5002963;28;43466;-71
2022/09/16 10:03:05;;;;;;;2.47;2.37;;;23.20;64.70;;;;;;4989686;28;43462;-71
2022/09/16 10:05:33;;;;;;;2.00;1.90;;;23.20;64.70;;;;;;5004476;28;43613;-71
2022/09/16 10:08:04;;;;;;;2.17;2.07;;;23.20;64.90;;;;;;4974139;28;44721;-71
2022/09/16 10:10:33;;;;;;;2.13;2.03;;;23.10;65.00;;;;;;4999115;28;43513;-72
2022/09/16 10:13:08;;;;;;;2.43;2.33;;;23.10;65.10;;;;;;4994926;28;43412;-72
2022/09/16 10:15:36;;;;;;;2.47;2.27;;;23.10;65.00;;;;;;4989258;28;43910;-73
2022/09/16 10:18:11;;;;;;;2.40;2.17;;;23.20;64.70;;;;;;4999859;28;43432;-70
2022/09/16 10:20:42;;;;;;;2.27;2.17;;;23.20;64.50;;;;;;4994578;28;43385;-72
2022/09/16 10:23:11;;;;;;;2.10;2.00;;;23.20;64.40;;;;;;5003872;28;43492;-72
2022/09/16 10:25:39;;;;;;;2.20;2.10;;;23.20;64.50;;;;;;4995249;28;43606;-70
2022/09/16 10:28:18;;;;;;;1.90;1.80;;;23.20;64.60;;;;;;4976611;28;44391;-70
2022/09/16 10:30:47;;;;;;;2.17;2.07;;;23.20;64.50;;;;;;4971218;28;43502;-71
2022/09/16 10:33:19;;;;;;;2.33;2.13;;;23.20;64.70;;;;;;4985814;28;43931;-72
2022/09/16 10:35:54;;;;;;;2.20;2.10;;;23.10;64.70;;;;;;4999310;28;43612;-71
2022/09/16 10:38:23;;;;;;;2.00;1.90;;;23.10;64.90;;;;;;4999025;28;43466;-71
2022/09/16 10:40:52;;;;;;;2.20;2.10;;;23.10;64.90;;;;;;4994361;28;43497;-71
2022/09/16 10:43:20;;;;;;;1.70;1.70;;;23.10;64.70;;;;;;5001918;28;43367;-72
2022/09/16 10:45:48;;;;;;;1.70;1.70;;;23.20;64.60;;;;;;5004192;28;43834;-72
2022/09/16 10:48:19;;;;;;;2.07;1.97;;;23.20;64.60;;;;;;4994974;28;43397;-70
2022/09/16 10:50:54;;;;;;;2.10;2.00;;;23.20;64.80;;;;;;4990405;28;43461;-71
2022/09/16 10:53:27;;;;;;;1.73;1.73;;;23.10;64.70;;;;;;5001840;28;43480;-71
2022/09/16 10:55:58;;;;;;;1.77;1.77;;;23.10;64.60;;;;;;4991281;28;43638;-72
2022/09/16 10:58:26;;;;;;;1.70;1.70;;;23.10;64.80;;;;;;4995505;28;43854;-72
2022/09/16 11:01:10;;;;;;;2.10;2.00;;;23.10;64.90;;;;;;4974410;28;43470;-71
2022/09/16 11:04:05;;;;;;;2.00;1.90;;;23.10;65.10;;;;;;4994495;28;43458;-70
2022/09/16 11:06:42;;;;;;;2.10;1.80;;;23.10;65.00;;;;;;4972477;28;45248;-73
2022/09/16 11:09:14;;;;;;;1.80;1.70;;;23.10;65.00;;;;;;4984454;28;44668;-71
2022/09/16 11:11:55;;;;;;;1.77;1.70;;;23.00;65.00;;;;;;5004213;28;43394;-71
2022/09/16 11:14:29;;;;;;;1.90;1.80;;;23.00;65.10;;;;;;5004668;28;43515;-74
2022/09/16 11:17:22;;;;;;;1.83;1.73;;;23.00;65.10;;;;;;5004728;28;43597;-71
2022/09/16 11:19:59;;;;;;;1.70;1.70;;;23.10;64.80;;;;;;5009931;28;43444;-71
2022/09/16 11:22:30;;;;;;;1.77;1.70;;;23.20;64.50;;;;;;4979911;28;43422;-71
2022/09/16 11:25:16;;;;;;;1.90;1.80;;;23.30;64.00;;;;;;4986759;28;43455;-71
2022/09/16 11:27:48;;;;;;;1.60;1.60;;;23.40;63.90;;;;;;4983691;28;45457;-71
2022/09/16 11:30:17;;;;;;;1.50;1.50;;;23.40;63.90;;;;;;5002267;28;43520;-71
2022/09/16 11:33:06;;;;;;;1.77;1.77;;;23.30;64.10;;;;;;5000859;28;43413;-70
2022/09/16 11:35:57;;;;;;;2.03;1.93;;;23.20;64.30;;;;;;5000144;28;43503;-72
2022/09/16 11:38:26;;;;;;;1.60;1.60;;;23.20;64.30;;;;;;4999638;28;43617;-72
2022/09/16 11:40:56;;;;;;;1.63;1.63;;;23.20;64.50;;;;;;4983341;28;44664;-70
2022/09/16 11:43:38;;;;;;;1.90;1.80;;;23.10;64.60;;;;;;4997372;28;43484;-72
2022/09/16 11:46:09;;;;;;;1.43;1.43;;;23.10;64.80;;;;;;5001289;28;43470;-74
2022/09/16 11:48:41;;;;;;;1.83;1.83;;;23.10;64.80;;;;;;4980675;28;45922;-73
2022/09/16 11:51:15;;;;;;;1.40;1.40;;;23.10;64.80;;;;;;4986248;28;44374;-71
2022/09/16 11:53:54;;;;;;;1.50;1.50;;;23.00;64.70;;;;;;4998134;28;43409;-73
2022/09/16 11:56:27;;;;;;;1.50;1.50;;;23.00;64.80;;;;;;4991522;28;43349;-71
2022/09/16 11:58:56;;;;;;;2.93;1.67;;;23.00;65.00;;;;;;4994468;28;43762;-72
2022/09/16 12:01:29;;;;;;;1.77;1.70;;;23.00;64.90;;;;;;4979903;28;44352;-72
2022/09/16 12:04:00;;;;;;;1.53;1.43;;;23.10;64.30;;;;;;4975044;28;43423;-71
2022/09/16 12:06:34;;;;;;;1.60;1.50;;;23.20;64.10;;;;;;5006351;28;43967;-72
2022/09/16 12:09:03;;;;;;;1.60;1.50;;;23.30;63.70;;;;;;5001430;28;43593;-70
2022/09/16 12:11:38;;;;;;;1.47;1.40;;;23.30;63.60;;;;;;4992219;28;43489;-71
2022/09/16 12:14:10;;;;;;;1.40;1.40;;;23.20;63.80;;;;;;4977793;28;43394;-71
2022/09/16 12:16:42;;;;;;;1.50;1.50;;;23.20;64.00;;;;;;4997583;28;43514;-73
2022/09/16 12:19:14;;;;;;;1.20;1.20;;;23.10;64.00;;;;;;5009502;28;43599;-73
2022/09/16 12:21:47;;;;;;;1.40;1.40;;;23.10;64.10;;;;;;5005002;28;43427;-70
2022/09/16 12:24:17;;;;;;;1.30;1.30;;;23.10;64.30;;;;;;4998998;28;43416;-71
2022/09/16 12:26:48;;;;;;;1.87;1.30;;;23.10;64.50;;;;;;5009924;28;43407;-71
2022/09/16 12:29:18;;;;;;;1.30;1.30;;;23.10;64.50;;;;;;4999658;28;43882;-70
2022/09/16 12:31:48;;;;;;;1.50;1.50;;;23.00;64.40;;;;;;4983648;28;45314;-72
2022/09/16 12:34:19;;;;;;;1.30;1.30;;;23.10;64.30;;;;;;5002986;28;43977;-72
2022/09/16 12:36:51;;;;;;;1.80;1.70;;;23.20;64.10;;;;;;4999932;28;43462;-72
2022/09/16 12:39:19;;;;;;;1.50;1.50;;;23.20;64.10;;;;;;4979107;28;45761;-71
2022/09/16 12:42:20;;;;;;;1.50;1.50;;;23.10;64.10;;;;;;4997502;28;43545;-71
2022/09/16 12:45:04;;;;;;;1.17;1.17;;;23.10;64.90;;;;;;5004374;28;43692;-71
2022/09/16 12:47:50;;;;;;;1.40;1.40;;;23.10;64.10;;;;;;5006254;28;43461;-73
2022/09/16 12:50:47;;;;;;;1.40;1.37;;;23.10;65.10;;;;;;4993045;28;43620;-70
2022/09/16 12:53:48;;;;;;;1.30;1.30;;;23.10;64.40;;;;;;4997169;28;43440;-71
2022/09/16 12:56:22;;;;;;;1.30;1.30;;;23.00;64.40;;;;;;4977975;28;43926;-72
2022/09/16 12:59:29;;;;;;;1.23;1.23;;;23.10;64.30;;;;;;5004672;28;43427;-71
2022/09/16 13:01:59;;;;;;;1.23;1.23;;;23.20;64.00;;;;;;4966951;28;45707;-72
2022/09/16 13:04:29;;;;;;;1.20;1.20;;;23.30;63.70;;;;;;4989311;28;44810;-70
2022/09/16 13:07:00;;;;;;;1.00;1.00;;;23.30;63.70;;;;;;5006282;28;43349;-72